Time;durP1;ratioP1;P1;durP2;ratioP2;P2;SDS_P1;SDS_P2;PMS_P1;PMS_P2;Temp;Humidity;BMP_temperature;BMP_pressure;BME280_temperature;BME280_humidity;BME280_pressure;Samples;Min_cycle;Max_cycle;Signal;HPM_P1;HPM_P2
2023/06/23 00:01:51;;;;;;;1.03;0.93;;;;;;;;;;5062615;28;20391;-84
2023/06/23 00:04:16;;;;;;;2.30;1.52;;;;;;;;;;5072332;28;20260;-86
2023/06/23 00:06:42;;;;;;;3.70;1.13;;;;;;;;;;5064567;28;20028;-86
2023/06/23 00:09:13;;;;;;;1.48;1.15;;;;;;;;;;5083268;28;20048;-84
2023/06/23 00:11:42;;;;;;;2.63;1.52;;;;;;;;;;5086921;28;20051;-86
2023/06/23 00:14:08;;;;;;;1.48;1.23;;;;;;;;;;5082637;28;20032;-86
2023/06/23 00:16:36;;;;;;;3.38;2.15;;;;;;;;;;5068137;28;20392;-88
2023/06/23 00:19:03;;;;;;;4.05;1.95;;;;;;;;;;5089676;28;20067;-87
2023/06/23 00:21:28;;;;;;;2.42;1.90;;;;;;;;;;5085957;28;20392;-86
2023/06/23 00:23:55;;;;;;;3.28;1.65;;;;;;;;;;5064749;28;20025;-85
2023/06/23 00:26:20;;;;;;;1.65;1.52;;;;;;;;;;5083558;28;20046;-86
2023/06/23 00:28:46;;;;;;;2.03;1.48;;;;;;;;;;5088941;28;20032;-86
2023/06/23 00:31:11;;;;;;;1.70;1.20;;;;;;;;;;5086791;28;20092;-84
2023/06/23 00:33:37;;;;;;;2.20;1.25;;;;;;;;;;5086276;28;20043;-84
2023/06/23 00:36:04;;;;;;;3.80;1.73;;;;;;;;;;5066913;28;20036;-84
2023/06/23 00:38:29;;;;;;;2.30;1.17;;;;;;;;;;5082277;28;20123;-83
2023/06/23 00:40:55;;;;;;;3.17;1.80;;;;;;;;;;5068700;28;20063;-86
2023/06/23 00:43:21;;;;;;;1.50;1.23;;;;;;;;;;5081643;28;20040;-82
2023/06/23 00:45:47;;;;;;;1.45;1.10;;;;;;;;;;5081575;28;20115;-83
2023/06/23 00:48:14;;;;;;;2.17;1.33;;;;;;;;;;5075724;28;20040;-86
2023/06/23 00:50:40;;;;;;;2.33;1.45;;;;;;;;;;5080955;28;20051;-84
2023/06/23 00:53:06;;;;;;;2.63;1.58;;;;;;;;;;5066605;28;20040;-82
2023/06/23 00:55:37;;;;;;;2.63;1.85;;;;;;;;;;5085105;28;20031;-87
2023/06/23 00:58:03;;;;;;;3.38;1.85;;;;;;;;;;5085777;28;20377;-83
2023/06/23 01:00:29;;;;;;;3.33;2.17;;;;;;;;;;5083883;28;20032;-86
2023/06/23 01:02:59;;;;;;;2.95;1.83;;;;;;;;;;5068650;28;20040;-84
2023/06/23 01:05:34;;;;;;;1.17;1.02;;;;;;;;;;5082157;28;20288;-82
2023/06/23 01:08:33;;;;;;;3.63;1.88;;;;;;;;;;5077415;28;20086;-83
2023/06/23 01:11:11;;;;;;;2.15;1.73;;;;;;;;;;5083424;28;20423;-85
2023/06/23 01:13:44;;;;;;;3.38;2.08;;;;;;;;;;5073367;28;20370;-83
2023/06/23 01:16:20;;;;;;;2.25;1.65;;;;;;;;;;5080089;28;20044;-84
2023/06/23 01:18:53;;;;;;;3.25;2.03;;;;;;;;;;5081280;28;20032;-85
2023/06/23 01:21:30;;;;;;;4.88;2.47;;;;;;;;;;5062632;28;20040;-83
2023/06/23 01:24:50;;;;;;;2.13;1.50;;;;;;;;;;5067534;28;20032;-83
2023/06/23 01:27:33;;;;;;;4.43;2.33;;;;;;;;;;5002774;28;20513;-83
2023/06/23 01:30:02;;;;;;;3.88;1.65;;;;;;;;;;5071094;28;20039;-83
2023/06/23 01:32:35;;;;;;;2.20;1.42;;;;;;;;;;5085085;28;20082;-84
2023/06/23 01:35:09;;;;;;;3.22;1.45;;;;;;;;;;5081464;28;20032;-84
2023/06/23 01:37:37;;;;;;;3.97;2.15;;;;;;;;;;5082299;28;20396;-83
2023/06/23 01:40:10;;;;;;;2.35;1.65;;;;;;;;;;5084476;28;20028;-84
2023/06/23 01:42:41;;;;;;;4.60;2.53;;;;;;;;;;5071491;28;20476;-82
2023/06/23 01:45:09;;;;;;;2.35;1.60;;;;;;;;;;5071275;28;20028;-84
2023/06/23 01:47:38;;;;;;;2.63;1.83;;;;;;;;;;5081972;28;20032;-85
2023/06/23 01:50:08;;;;;;;3.90;2.13;;;;;;;;;;5087639;28;20071;-85
2023/06/23 01:52:37;;;;;;;3.13;2.13;;;;;;;;;;5086428;28;20115;-85
2023/06/23 01:55:05;;;;;;;2.95;1.95;;;;;;;;;;5085933;28;20036;-81
2023/06/23 01:57:36;;;;;;;2.50;1.50;;;;;;;;;;5090464;28;20032;-86
2023/06/23 02:00:05;;;;;;;3.38;1.77;;;;;;;;;;5081230;28;20067;-85
2023/06/23 02:02:31;;;;;;;2.47;1.35;;;;;;;;;;5083739;28;20043;-84
2023/06/23 02:04:59;;;;;;;3.38;1.83;;;;;;;;;;5085021;28;20387;-84
2023/06/23 02:07:26;;;;;;;3.85;2.13;;;;;;;;;;5088118;28;20549;-82
2023/06/23 02:09:54;;;;;;;2.55;1.85;;;;;;;;;;5066990;28;20032;-85
2023/06/23 02:12:20;;;;;;;1.50;1.33;;;;;;;;;;5068386;28;20413;-83
2023/06/23 02:14:48;;;;;;;6.57;2.10;;;;;;;;;;5070960;28;20089;-85
2023/06/23 02:17:14;;;;;;;3.85;1.63;;;;;;;;;;5091844;28;20085;-84
2023/06/23 02:19:45;;;;;;;3.53;2.65;;;;;;;;;;5088295;28;20031;-82
2023/06/23 02:22:12;;;;;;;8.65;2.03;;;;;;;;;;5071485;28;20039;-84
2023/06/23 02:24:39;;;;;;;2.67;1.90;;;;;;;;;;5092218;28;20025;-85
2023/06/23 02:27:07;;;;;;;2.58;1.70;;;;;;;;;;5085885;28;20086;-89
2023/06/23 02:29:39;;;;;;;3.75;1.88;;;;;;;;;;5069808;28;20032;-87
2023/06/23 02:32:05;;;;;;;5.32;2.38;;;;;;;;;;5064636;28;20063;-86
2023/06/23 02:34:31;;;;;;;3.22;2.05;;;;;;;;;;5083133;28;20032;-88
2023/06/23 02:37:03;;;;;;;4.25;1.70;;;;;;;;;;5068444;28;20042;-83
2023/06/23 02:39:33;;;;;;;2.03;1.73;;;;;;;;;;5090617;28;20036;-87
2023/06/23 02:41:59;;;;;;;;;;;;;;;;;;5085050;28;20043;-87
2023/06/23 02:44:37;;;;;;;4.72;2.85;;;;;;;;;;5091058;28;19919;-90
2023/06/23 02:47:10;;;;;;;2.05;1.27;;;;;;;;;;5090796;28;20107;-86
2023/06/23 02:49:37;;;;;;;2.30;1.90;;;;;;;;;;5079367;28;20123;-84
2023/06/23 02:52:08;;;;;;;4.38;2.25;;;;;;;;;;5082031;28;20040;-85
2023/06/23 02:54:39;;;;;;;1.23;1.02;;;;;;;;;;5088077;28;20118;-84
2023/06/23 02:57:08;;;;;;;3.13;1.73;;;;;;;;;;5086855;28;20040;-86
2023/06/23 02:59:36;;;;;;;3.90;2.00;;;;;;;;;;5066561;28;20075;-86
2023/06/23 03:02:07;;;;;;;2.35;1.85;;;;;;;;;;5086042;28;20475;-86
2023/06/23 03:04:36;;;;;;;2.13;1.73;;;;;;;;;;5069914;28;20503;-87
2023/06/23 03:07:05;;;;;;;4.30;2.67;;;;;;;;;;5086413;28;20036;-85
2023/06/23 03:09:30;;;;;;;2.03;1.17;;;;;;;;;;5089931;28;20028;-86
2023/06/23 03:11:56;;;;;;;2.42;1.65;;;;;;;;;;5063224;28;20040;-86
2023/06/23 03:14:21;;;;;;;2.50;1.83;;;;;;;;;;5085939;28;20549;-85
2023/06/23 03:16:59;;;;;;;3.03;1.42;;;;;;;;;;5083589;28;20042;-84
2023/06/23 03:19:28;;;;;;;2.92;1.80;;;;;;;;;;5084782;28;20040;-86
2023/06/23 03:22:16;;;;;;;4.25;2.17;;;;;;;;;;5071240;28;20098;-88
2023/06/23 03:24:45;;;;;;;1.85;1.40;;;;;;;;;;5086486;28;20031;-88
2023/06/23 03:27:13;;;;;;;2.47;1.42;;;;;;;;;;5085983;28;20123;-86
2023/06/23 03:30:03;;;;;;;3.20;1.70;;;;;;;;;;5079364;28;20040;-82
2023/06/23 03:32:34;;;;;;;2.95;1.48;;;;;;;;;;5065361;28;20039;-87
2023/06/23 03:35:04;;;;;;;3.13;1.98;;;;;;;;;;5062677;28;20036;-87
2023/06/23 03:37:32;;;;;;;2.15;1.83;;;;;;;;;;5083713;28;20040;-86
2023/06/23 03:40:04;;;;;;;1.67;1.27;;;;;;;;;;5070295;28;20120;-87
2023/06/23 03:42:32;;;;;;;4.32;1.42;;;;;;;;;;5064912;28;20919;-86
2023/06/23 03:45:02;;;;;;;3.42;1.67;;;;;;;;;;5082400;28;20087;-85
2023/06/23 03:47:31;;;;;;;3.03;1.60;;;;;;;;;;5084738;28;20043;-84
2023/06/23 03:50:09;;;;;;;4.20;1.58;;;;;;;;;;5082322;28;20078;-87
2023/06/23 03:52:38;;;;;;;2.60;1.38;;;;;;;;;;5088025;28;20097;-83
2023/06/23 03:55:07;;;;;;;5.07;2.28;;;;;;;;;;5089714;28;20040;-83
2023/06/23 03:57:37;;;;;;;3.47;1.92;;;;;;;;;;5069984;28;20434;-87
2023/06/23 04:00:04;;;;;;;2.33;1.88;;;;;;;;;;5067573;28;20032;-86
2023/06/23 04:02:31;;;;;;;3.22;2.10;;;;;;;;;;5083463;28;20506;-85
2023/06/23 04:04:59;;;;;;;4.38;2.13;;;;;;;;;;5089068;28;20472;-86
2023/06/23 04:07:25;;;;;;;2.60;2.15;;;;;;;;;;5070018;28;20725;-86
2023/06/23 04:09:53;;;;;;;4.18;2.22;;;;;;;;;;5086231;28;20036;-89
2023/06/23 04:12:21;;;;;;;9.57;2.40;;;;;;;;;;5069707;28;20039;-85
2023/06/23 04:14:51;;;;;;;8.43;3.13;;;;;;;;;;5084513;28;20089;-89
2023/06/23 04:17:21;;;;;;;4.13;2.40;;;;;;;;;;5082504;28;20144;-87
2023/06/23 04:19:50;;;;;;;3.03;2.08;;;;;;;;;;5067589;28;20032;-85
2023/06/23 04:22:22;;;;;;;2.17;1.73;;;;;;;;;;5084738;28;20040;-87
2023/06/23 04:24:49;;;;;;;4.53;2.85;;;;;;;;;;5089874;28;20369;-85
2023/06/23 04:27:17;;;;;;;3.30;2.15;;;;;;;;;;5087772;28;20031;-88
2023/06/23 04:29:49;;;;;;;4.45;2.83;;;;;;;;;;5086991;28;20032;-89
2023/06/23 04:32:17;;;;;;;5.82;2.53;;;;;;;;;;5082591;28;20108;-88
2023/06/23 04:34:43;;;;;;;4.18;2.58;;;;;;;;;;5065899;28;20120;-86
2023/06/23 04:37:15;;;;;;;6.38;3.55;;;;;;;;;;5083642;28;20028;-87
2023/06/23 04:40:01;;;;;;;6.38;2.85;;;;;;;;;;5068510;28;20523;-90
2023/06/23 04:42:40;;;;;;;8.18;4.07;;;;;;;;;;5084322;28;20043;-85
2023/06/23 04:45:08;;;;;;;6.13;3.05;;;;;;;;;;5065482;28;20037;-88
2023/06/23 04:47:38;;;;;;;6.32;3.28;;;;;;;;;;5068573;28;20036;-89
2023/06/23 04:50:11;;;;;;;5.55;3.65;;;;;;;;;;5067827;28;20039;-86
2023/06/23 04:52:42;;;;;;;3.67;2.33;;;;;;;;;;5081792;28;20020;-85
2023/06/23 04:55:13;;;;;;;4.65;3.03;;;;;;;;;;5086457;28;20365;-88
2023/06/23 04:57:40;;;;;;;6.90;3.28;;;;;;;;;;5064333;28;20082;-88
2023/06/23 05:00:08;;;;;;;5.72;3.22;;;;;;;;;;5083449;28;20040;-86
2023/06/23 05:02:35;;;;;;;4.80;2.83;;;;;;;;;;5080063;28;20357;-88
2023/06/23 05:05:01;;;;;;;6.80;3.53;;;;;;;;;;5080223;28;20539;-87
2023/06/23 05:07:28;;;;;;;6.60;4.90;;;;;;;;;;5077600;28;20037;-85
2023/06/23 05:09:56;;;;;;;5.43;2.92;;;;;;;;;;5061797;28;20446;-86
2023/06/23 05:12:23;;;;;;;7.25;3.67;;;;;;;;;;5082168;28;20460;-87
2023/06/23 05:14:50;;;;;;;5.10;3.08;;;;;;;;;;5064803;28;20421;-88
2023/06/23 05:17:17;;;;;;;4.10;2.60;;;;;;;;;;5085689;28;20033;-87
2023/06/23 05:19:45;;;;;;;4.13;2.50;;;;;;;;;;5080231;28;20035;-85
2023/06/23 05:22:15;;;;;;;5.53;3.60;;;;;;;;;;5066591;28;20074;-86
2023/06/23 05:24:44;;;;;;;4.35;2.75;;;;;;;;;;5079985;28;20460;-86
2023/06/23 05:27:11;;;;;;;7.38;3.05;;;;;;;;;;5086564;28;20036;-86
2023/06/23 05:29:45;;;;;;;8.85;3.30;;;;;;;;;;5087948;28;20486;-90
2023/06/23 05:32:14;;;;;;;5.65;3.55;;;;;;;;;;5087433;28;20066;-88
2023/06/23 05:34:41;;;;;;;9.45;3.30;;;;;;;;;;5089559;28;20040;-89
2023/06/23 05:37:08;;;;;;;6.05;3.72;;;;;;;;;;5085653;28;20040;-88
2023/06/23 05:39:36;;;;;;;3.10;2.42;;;;;;;;;;5068599;28;20039;-89
2023/06/23 05:42:02;;;;;;;2.80;2.40;;;;;;;;;;5069991;28;20488;-88
2023/06/23 05:44:28;;;;;;;4.13;2.85;;;;;;;;;;5065714;28;20033;-88
2023/06/23 05:46:58;;;;;;;3.72;2.45;;;;;;;;;;5070388;28;20540;-88
2023/06/23 05:49:25;;;;;;;3.72;2.60;;;;;;;;;;5073643;28;20040;-88
2023/06/23 05:51:56;;;;;;;4.28;2.80;;;;;;;;;;5063042;28;20443;-91
2023/06/23 05:54:25;;;;;;;8.73;3.30;;;;;;;;;;5065916;28;20040;-89
2023/06/23 05:56:54;;;;;;;6.40;3.63;;;;;;;;;;5068017;28;20476;-90
2023/06/23 05:59:42;;;;;;;3.72;2.75;;;;;;;;;;5070713;28;20028;-90
2023/06/23 06:02:16;;;;;;;6.70;4.25;;;;;;;;;;5087376;28;20071;-89
2023/06/23 06:04:47;;;;;;;4.13;2.85;;;;;;;;;;5086176;28;20036;-90
2023/06/23 06:07:14;;;;;;;4.55;3.58;;;;;;;;;;5086998;28;20528;-85
2023/06/23 06:09:42;;;;;;;5.50;3.55;;;;;;;;;;5083742;28;20384;-87
2023/06/23 06:12:10;;;;;;;6.15;4.50;;;;;;;;;;5065067;28;20044;-87
2023/06/23 06:14:37;;;;;;;3.40;2.30;;;;;;;;;;5081607;28;20434;-83
2023/06/23 06:17:03;;;;;;;5.18;3.25;;;;;;;;;;5082437;28;20040;-84
2023/06/23 06:19:30;;;;;;;7.55;3.72;;;;;;;;;;5089533;28;20382;-85
2023/06/23 06:21:57;;;;;;;7.20;2.40;;;;;;;;;;5089220;28;20024;-86
2023/06/23 06:24:24;;;;;;;3.72;2.50;;;;;;;;;;5093572;28;20035;-85
2023/06/23 06:26:55;;;;;;;4.90;3.05;;;;;;;;;;5083926;28;20044;-83
2023/06/23 06:29:21;;;;;;;5.18;3.75;;;;;;;;;;5069792;28;20057;-88
2023/06/23 06:31:47;;;;;;;4.22;2.95;;;;;;;;;;5087640;28;20512;-86
2023/06/23 06:34:15;;;;;;;3.45;2.65;;;;;;;;;;5087242;28;20762;-85
2023/06/23 06:36:42;;;;;;;5.05;3.72;;;;;;;;;;5083244;28;20032;-86
2023/06/23 06:39:09;;;;;;;3.83;2.72;;;;;;;;;;5087957;28;20545;-87
2023/06/23 06:41:35;;;;;;;5.50;3.05;;;;;;;;;;5064865;28;20031;-85
2023/06/23 06:44:02;;;;;;;6.38;4.05;;;;;;;;;;5086726;28;20032;-89
2023/06/23 06:46:29;;;;;;;4.30;2.97;;;;;;;;;;5075329;28;20089;-87
2023/06/23 06:48:59;;;;;;;3.30;2.75;;;;;;;;;;5084548;28;20365;-88
2023/06/23 06:51:27;;;;;;;4.05;3.30;;;;;;;;;;5087914;28;20060;-85
2023/06/23 06:53:53;;;;;;;4.53;2.83;;;;;;;;;;5089001;28;20085;-89
2023/06/23 06:56:19;;;;;;;5.75;3.28;;;;;;;;;;5087889;28;20055;-85
2023/06/23 06:58:45;;;;;;;4.63;2.97;;;;;;;;;;5071958;28;20032;-88
2023/06/23 07:01:11;;;;;;;4.65;3.42;;;;;;;;;;5085336;28;20046;-87
2023/06/23 07:03:41;;;;;;;4.97;3.67;;;;;;;;;;5080926;28;20036;-89
2023/06/23 07:06:06;;;;;;;4.70;3.25;;;;;;;;;;5086553;28;20036;-89
2023/06/23 07:08:32;;;;;;;4.90;3.10;;;;;;;;;;5087819;28;20043;-86
2023/06/23 07:10:57;;;;;;;5.15;3.05;;;;;;;;;;5083329;28;20381;-89
2023/06/23 07:13:22;;;;;;;3.45;2.53;;;;;;;;;;5094095;28;20154;-87
2023/06/23 07:15:48;;;;;;;4.57;2.95;;;;;;;;;;5084628;28;20039;-88
2023/06/23 07:18:13;;;;;;;5.22;3.45;;;;;;;;;;5082782;28;20586;-88
2023/06/23 07:20:39;;;;;;;4.05;3.13;;;;;;;;;;5093208;28;20514;-90
2023/06/23 07:23:04;;;;;;;3.15;2.72;;;;;;;;;;5072101;28;20036;-88
2023/06/23 07:25:30;;;;;;;3.58;2.58;;;;;;;;;;5071448;28;20102;-88
2023/06/23 07:27:55;;;;;;;3.92;3.22;;;;;;;;;;5086919;28;20036;-87
2023/06/23 07:30:21;;;;;;;3.35;2.13;;;;;;;;;;5089272;28;20062;-86
2023/06/23 07:32:46;;;;;;;4.13;2.85;;;;;;;;;;5084134;28;20056;-85
2023/06/23 07:35:12;;;;;;;6.57;2.92;;;;;;;;;;5076999;28;20095;-86
2023/06/23 07:37:40;;;;;;;4.07;2.55;;;;;;;;;;5081265;28;20523;-87
2023/06/23 07:40:07;;;;;;;4.15;2.80;;;;;;;;;;5085825;28;20050;-89
2023/06/23 07:42:32;;;;;;;3.58;2.90;;;;;;;;;;5089325;28;20053;-86
2023/06/23 07:44:57;;;;;;;7.20;3.17;;;;;;;;;;5090265;28;20058;-87
2023/06/23 07:47:23;;;;;;;3.67;3.20;;;;;;;;;;5081657;28;20127;-88
2023/06/23 07:49:48;;;;;;;2.85;2.22;;;;;;;;;;5087987;28;20104;-88
2023/06/23 07:52:14;;;;;;;4.22;2.92;;;;;;;;;;5087386;28;20509;-85
2023/06/23 07:54:39;;;;;;;3.72;3.08;;;;;;;;;;5082224;28;20036;-86
2023/06/23 07:57:08;;;;;;;2.70;2.17;;;;;;;;;;5063667;28;20048;-84
2023/06/23 07:59:34;;;;;;;3.65;2.28;;;;;;;;;;5089017;28;20036;-86
2023/06/23 08:02:00;;;;;;;4.10;2.58;;;;;;;;;;5086376;28;20044;-87
2023/06/23 08:04:26;;;;;;;3.88;2.95;;;;;;;;;;5080982;28;20036;-85
2023/06/23 08:06:51;;;;;;;8.65;2.95;;;;;;;;;;5080393;28;20039;-84
2023/06/23 08:09:17;;;;;;;4.10;2.45;;;;;;;;;;5090836;28;20036;-88
2023/06/23 08:11:42;;;;;;;3.13;2.42;;;;;;;;;;5086541;28;20103;-85
2023/06/23 08:14:08;;;;;;;5.63;3.10;;;;;;;;;;5084173;28;20043;-84
2023/06/23 08:16:33;;;;;;;3.15;2.38;;;;;;;;;;5070268;28;20035;-88
2023/06/23 08:18:59;;;;;;;4.10;3.00;;;;;;;;;;5080271;28;20436;-89
2023/06/23 08:21:24;;;;;;;4.28;2.70;;;;;;;;;;5066177;28;20063;-90
2023/06/23 08:23:49;;;;;;;3.90;3.20;;;;;;;;;;5089008;28;20020;-87
2023/06/23 08:26:16;;;;;;;4.15;2.80;;;;;;;;;;5084780;28;20044;-89
2023/06/23 08:28:41;;;;;;;3.67;2.72;;;;;;;;;;5073651;28;20399;-89
2023/06/23 08:31:08;;;;;;;2.90;2.20;;;;;;;;;;5064301;28;20127;-89
2023/06/23 08:33:33;;;;;;;5.40;3.00;;;;;;;;;;5083613;28;20381;-89
2023/06/23 08:36:00;;;;;;;6.35;2.83;;;;;;;;;;5086884;28;20040;-88
2023/06/23 08:38:25;;;;;;;3.63;2.67;;;;;;;;;;5067769;28;20028;-81
2023/06/23 08:40:52;;;;;;;4.75;3.42;;;;;;;;;;5080385;28;20036;-84
2023/06/23 08:43:25;;;;;;;3.92;3.00;;;;;;;;;;5083607;28;20036;-83
2023/06/23 08:45:57;;;;;;;4.50;2.72;;;;;;;;;;5065446;28;20059;-85
2023/06/23 08:48:26;;;;;;;5.18;3.47;;;;;;;;;;5085963;28;20043;-82
2023/06/23 08:51:01;;;;;;;10.15;3.35;;;;;;;;;;5083669;28;20125;-82
2023/06/23 08:53:27;;;;;;;3.00;2.03;;;;;;;;;;5071379;28;20043;-82
2023/06/23 08:55:54;;;;;;;3.13;2.22;;;;;;;;;;5069350;28;20032;-82
2023/06/23 08:58:22;;;;;;;4.25;2.92;;;;;;;;;;5068110;28;20117;-81
2023/06/23 09:00:49;;;;;;;5.93;3.60;;;;;;;;;;5086168;28;20177;-84
2023/06/23 09:03:15;;;;;;;4.88;2.97;;;;;;;;;;5064220;28;20029;-85
2023/06/23 09:05:41;;;;;;;2.85;2.25;;;;;;;;;;5080031;28;20357;-82
2023/06/23 09:08:07;;;;;;;4.18;3.00;;;;;;;;;;5068546;28;20044;-86
2023/06/23 09:10:33;;;;;;;3.92;2.88;;;;;;;;;;5065235;28;20558;-82
2023/06/23 09:13:07;;;;;;;4.30;2.65;;;;;;;;;;5078805;28;20040;-83
2023/06/23 09:15:37;;;;;;;4.50;2.42;;;;;;;;;;5081995;28;20049;-83
2023/06/23 09:18:03;;;;;;;2.90;2.22;;;;;;;;;;5080116;28;20040;-83
2023/06/23 09:20:32;;;;;;;4.10;3.00;;;;;;;;;;5076475;28;20046;-85
2023/06/23 09:22:58;;;;;;;4.03;2.60;;;;;;;;;;5081296;28;20511;-86
2023/06/23 09:25:41;;;;;;;4.20;2.92;;;;;;;;;;5084641;28;20066;-82
2023/06/23 09:28:06;;;;;;;4.00;3.13;;;;;;;;;;5083516;28;20036;-84
2023/06/23 09:30:35;;;;;;;3.28;2.08;;;;;;;;;;5078014;28;20499;-85
2023/06/23 09:33:05;;;;;;;3.47;2.85;;;;;;;;;;5075650;28;20409;-86
2023/06/23 09:35:30;;;;;;;;;;;;;;;;;;5083807;28;20059;-86
2023/06/23 09:37:56;;;;;;;3.97;2.42;;;;;;;;;;5079200;28;19963;-86
2023/06/23 09:40:26;;;;;;;3.35;2.10;;;;;;;;;;5081134;28;20028;-84
2023/06/23 09:42:59;;;;;;;4.43;2.60;;;;;;;;;;5083032;28;20031;-84
2023/06/23 09:45:25;;;;;;;3.17;2.38;;;;;;;;;;5085525;28;20037;-89
2023/06/23 09:47:51;;;;;;;2.42;1.90;;;;;;;;;;5091088;28;20500;-87
2023/06/23 09:50:20;;;;;;;3.28;2.20;;;;;;;;;;5066695;28;20114;-86
2023/06/23 09:52:46;;;;;;;3.33;2.20;;;;;;;;;;5087301;28;20048;-87
2023/06/23 09:55:11;;;;;;;2.30;2.00;;;;;;;;;;5086287;28;20029;-87
2023/06/23 09:57:46;;;;;;;3.22;2.17;;;;;;;;;;5085516;28;20517;-88
2023/06/23 10:00:17;;;;;;;2.90;1.80;;;;;;;;;;5085994;28;20032;-91
2023/06/23 10:02:42;;;;;;;5.18;2.85;;;;;;;;;;5070083;28;20039;-89
2023/06/23 10:05:08;;;;;;;4.05;2.42;;;;;;;;;;5083073;28;20032;-88
2023/06/23 10:07:34;;;;;;;1.95;1.65;;;;;;;;;;5083867;28;20036;-88
2023/06/23 10:10:04;;;;;;;2.53;1.67;;;;;;;;;;5089091;28;20039;-88
2023/06/23 10:12:30;;;;;;;5.03;2.72;;;;;;;;;;5066052;28;20032;-89
2023/06/23 10:14:57;;;;;;;2.30;1.90;;;;;;;;;;5091848;28;20522;-87
2023/06/23 10:17:23;;;;;;;3.30;2.70;;;;;;;;;;5089639;28;20492;-83
2023/06/23 10:19:50;;;;;;;2.45;1.80;;;;;;;;;;5086337;28;20124;-86
2023/06/23 10:22:18;;;;;;;2.10;1.48;;;;;;;;;;5087586;28;20051;-84
2023/06/23 10:24:46;;;;;;;3.95;2.67;;;;;;;;;;5084363;28;20032;-86
2023/06/23 10:27:23;;;;;;;3.28;2.70;;;;;;;;;;5085611;28;20032;-83
2023/06/23 10:29:54;;;;;;;3.92;2.22;;;;;;;;;;5082313;28;20088;-85
2023/06/23 10:32:30;;;;;;;4.03;2.38;;;;;;;;;;5084190;28;20024;-86
2023/06/23 10:34:57;;;;;;;2.65;2.25;;;;;;;;;;5081983;28;20036;-82
2023/06/23 10:37:25;;;;;;;3.03;2.08;;;;;;;;;;5063908;28;20028;-86
2023/06/23 10:40:02;;;;;;;2.78;2.13;;;;;;;;;;5086548;28;20481;-82
2023/06/23 10:42:29;;;;;;;3.25;2.20;;;;;;;;;;5082963;28;20106;-81
2023/06/23 10:44:55;;;;;;;2.97;2.35;;;;;;;;;;5079130;28;20028;-85
2023/06/23 10:47:21;;;;;;;2.15;1.48;;;;;;;;;;5080385;28;20036;-86
2023/06/23 10:49:48;;;;;;;3.92;2.17;;;;;;;;;;5084083;28;21858;-84
2023/06/23 10:52:14;;;;;;;3.20;2.25;;;;;;;;;;5087901;28;20103;-85
2023/06/23 10:54:42;;;;;;;2.35;1.55;;;;;;;;;;5084108;28;20047;-86
2023/06/23 10:57:12;;;;;;;2.35;1.73;;;;;;;;;;5070399;28;20124;-85
2023/06/23 11:00:05;;;;;;;4.95;2.42;;;;;;;;;;5086501;28;20070;-85
2023/06/23 11:02:49;;;;;;;2.85;2.15;;;;;;;;;;5086278;28;20059;-86
2023/06/23 11:05:16;;;;;;;3.45;2.50;;;;;;;;;;5085630;28;20535;-85
2023/06/23 11:08:02;;;;;;;3.47;2.47;;;;;;;;;;5080179;28;20427;-84
2023/06/23 11:10:50;;;;;;;3.67;2.47;;;;;;;;;;5071429;28;20035;-84
2023/06/23 11:13:16;;;;;;;3.08;2.13;;;;;;;;;;5078820;28;20099;-85
2023/06/23 11:18:03;;;;;;;4.93;2.60;;;;;;;;;;5080470;27;20388;-85
2023/06/23 11:20:39;;;;;;;2.63;1.92;;;;;;;;;;5080712;28;20032;-87
2023/06/23 11:23:09;;;;;;;1.75;1.40;;;;;;;;;;5078742;28;20400;-89
2023/06/23 11:25:48;;;;;;;3.35;2.40;;;;;;;;;;5077933;28;20028;-85
2023/06/23 11:28:23;;;;;;;3.13;2.63;;;;;;;;;;5076123;28;20027;-83
2023/06/23 11:31:14;;;;;;;3.20;2.45;;;;;;;;;;5083419;28;20032;-83
2023/06/23 11:33:40;;;;;;;3.15;2.47;;;;;;;;;;5078315;28;20518;-84
2023/06/23 11:36:08;;;;;;;4.50;2.65;;;;;;;;;;5081682;28;20056;-85
2023/06/23 11:38:36;;;;;;;3.05;2.38;;;;;;;;;;5081046;28;20033;-84
2023/06/23 11:41:02;;;;;;;3.80;2.67;;;;;;;;;;5087130;28;20028;-85
2023/06/23 11:43:35;;;;;;;3.22;2.40;;;;;;;;;;5087678;28;20036;-84
2023/06/23 11:46:06;;;;;;;2.75;2.15;;;;;;;;;;5086784;28;20052;-87
2023/06/23 11:48:32;;;;;;;3.20;1.98;;;;;;;;;;5077173;28;20071;-87
2023/06/23 11:50:59;;;;;;;4.05;2.65;;;;;;;;;;5085986;28;20434;-86
2023/06/23 11:53:25;;;;;;;3.88;2.40;;;;;;;;;;5081996;28;20020;-86
2023/06/23 11:55:52;;;;;;;3.88;2.50;;;;;;;;;;5083533;28;20403;-84
2023/06/23 11:58:17;;;;;;;3.92;2.65;;;;;;;;;;5084760;28;20457;-87
2023/06/23 12:00:43;;;;;;;3.60;1.92;;;;;;;;;;5080348;28;20072;-83
2023/06/23 12:03:16;;;;;;;3.38;1.98;;;;;;;;;;5078893;28;20028;-85
2023/06/23 12:05:43;;;;;;;4.43;2.55;;;;;;;;;;5085012;28;20028;-83
2023/06/23 12:08:09;;;;;;;3.42;2.65;;;;;;;;;;5080694;28;20510;-84
2023/06/23 12:10:36;;;;;;;2.92;2.10;;;;;;;;;;5082706;28;20039;-88
2023/06/23 12:13:02;;;;;;;2.88;2.45;;;;;;;;;;5079872;28;20642;-88
2023/06/23 12:15:29;;;;;;;4.15;3.55;;;;;;;;;;5082587;28;20032;-86
2023/06/23 12:17:57;;;;;;;5.13;2.45;;;;;;;;;;5080724;28;20031;-86
2023/06/23 12:20:22;;;;;;;;;;;;;;;;;;5086422;28;20024;-89
2023/06/23 12:22:51;;;;;;;3.55;2.30;;;;;;;;;;5084695;28;19928;-87
2023/06/23 12:25:18;;;;;;;3.40;2.55;;;;;;;;;;5084102;28;20032;-86
2023/06/23 12:28:16;;;;;;;3.50;2.10;;;;;;;;;;5078880;28;20385;-89
2023/06/23 12:30:43;;;;;;;4.25;2.83;;;;;;;;;;5070318;28;20041;-88
2023/06/23 12:33:14;;;;;;;3.80;2.47;;;;;;;;;;5065025;28;20037;-86
2023/06/23 12:35:40;;;;;;;4.10;2.60;;;;;;;;;;5067654;28;20028;-88
2023/06/23 12:38:10;;;;;;;3.40;2.70;;;;;;;;;;5068820;28;20048;-86
2023/06/23 12:40:36;;;;;;;4.82;2.75;;;;;;;;;;5062780;28;20037;-85
2023/06/23 12:43:03;;;;;;;3.90;2.40;;;;;;;;;;5064153;28;20423;-87
2023/06/23 12:45:29;;;;;;;3.47;2.15;;;;;;;;;;5065082;28;20928;-85
2023/06/23 12:47:55;;;;;;;4.20;2.85;;;;;;;;;;5066643;28;20028;-85
2023/06/23 12:50:33;;;;;;;3.50;2.75;;;;;;;;;;5065854;28;20029;-85
2023/06/23 12:52:59;;;;;;;4.85;2.88;;;;;;;;;;5063739;28;20013;-88
2023/06/23 12:55:24;;;;;;;3.95;2.70;;;;;;;;;;5063829;28;20096;-88
2023/06/23 12:57:50;;;;;;;4.05;2.45;;;;;;;;;;5065587;28;20021;-85
2023/06/23 13:00:21;;;;;;;3.33;2.42;;;;;;;;;;5068950;28;20476;-87
2023/06/23 13:02:49;;;;;;;3.30;2.45;;;;;;;;;;5067004;28;20024;-87
2023/06/23 13:05:15;;;;;;;3.65;2.53;;;;;;;;;;5067683;28;20111;-84
2023/06/23 13:07:41;;;;;;;3.47;1.95;;;;;;;;;;5062049;28;20059;-87
2023/06/23 13:10:08;;;;;;;2.90;2.08;;;;;;;;;;5063084;28;20064;-85
2023/06/23 13:12:33;;;;;;;3.85;1.90;;;;;;;;;;5065863;28;20127;-85
2023/06/23 13:14:59;;;;;;;2.83;1.95;;;;;;;;;;5067539;28;20099;-88
2023/06/23 13:17:25;;;;;;;3.45;2.28;;;;;;;;;;5063010;28;20037;-87
2023/06/23 13:19:51;;;;;;;3.63;2.15;;;;;;;;;;5063552;28;20070;-85
2023/06/23 13:22:16;;;;;;;3.05;2.00;;;;;;;;;;5072958;28;20408;-87
2023/06/23 13:24:41;;;;;;;4.15;2.08;;;;;;;;;;5066027;28;20483;-86
2023/06/23 13:27:08;;;;;;;4.13;2.67;;;;;;;;;;5064475;28;20759;-89
2023/06/23 13:29:39;;;;;;;4.20;2.75;;;;;;;;;;5067818;28;20040;-89
2023/06/23 13:32:06;;;;;;;2.35;2.05;;;;;;;;;;5064368;28;20074;-87
2023/06/23 13:34:32;;;;;;;3.38;2.42;;;;;;;;;;5070158;28;20414;-85
2023/06/23 13:36:58;;;;;;;3.15;2.40;;;;;;;;;;5063087;28;20051;-89
2023/06/23 13:39:23;;;;;;;3.08;2.45;;;;;;;;;;5069014;28;20032;-90
2023/06/23 13:41:56;;;;;;;4.55;2.47;;;;;;;;;;5066107;28;20078;-87
2023/06/23 13:44:22;;;;;;;2.83;2.45;;;;;;;;;;5066416;28;20028;-88
2023/06/23 13:46:50;;;;;;;4.40;2.80;;;;;;;;;;5062179;28;20380;-88
2023/06/23 13:49:16;;;;;;;3.63;2.47;;;;;;;;;;5062188;28;20549;-89
2023/06/23 13:51:41;;;;;;;4.07;2.00;;;;;;;;;;5057412;28;20046;-86
2023/06/23 13:54:07;;;;;;;4.00;2.40;;;;;;;;;;5062994;28;20024;-85
2023/06/23 13:56:33;;;;;;;3.53;2.38;;;;;;;;;;5066766;28;20106;-85
2023/06/23 13:58:59;;;;;;;4.57;2.97;;;;;;;;;;5059211;28;20714;-85
2023/06/23 14:01:25;;;;;;;2.83;2.35;;;;;;;;;;5055655;28;20135;-88
2023/06/23 14:03:51;;;;;;;5.38;3.05;;;;;;;;;;5060162;28;20051;-85
2023/06/23 14:06:22;;;;;;;3.83;2.80;;;;;;;;;;5057385;28;20025;-84
2023/06/23 14:08:51;;;;;;;3.33;2.47;;;;;;;;;;5056788;28;20029;-86
2023/06/23 14:11:16;;;;;;;4.53;3.03;;;;;;;;;;5083717;28;20024;-87
2023/06/23 14:13:42;;;;;;;4.35;2.95;;;;;;;;;;5063726;28;20361;-85
2023/06/23 14:16:09;;;;;;;2.55;2.20;;;;;;;;;;5061026;28;20101;-86
2023/06/23 14:18:34;;;;;;;6.85;3.17;;;;;;;;;;5061302;28;20494;-85
2023/06/23 14:21:00;;;;;;;4.13;2.75;;;;;;;;;;5059645;28;20111;-85
2023/06/23 14:23:25;;;;;;;5.55;3.20;;;;;;;;;;5062099;28;20108;-88
2023/06/23 14:25:51;;;;;;;3.80;2.30;;;;;;;;;;5061182;28;20052;-88
2023/06/23 14:28:16;;;;;;;4.05;2.75;;;;;;;;;;5061122;28;20024;-86
2023/06/23 14:30:42;;;;;;;3.60;2.58;;;;;;;;;;5064533;28;20029;-88
2023/06/23 14:33:08;;;;;;;6.63;2.78;;;;;;;;;;5065140;28;20066;-89
2023/06/23 14:35:34;;;;;;;3.00;2.35;;;;;;;;;;5064151;28;20043;-85
2023/06/23 14:38:05;;;;;;;3.67;2.70;;;;;;;;;;5061129;28;20067;-85
2023/06/23 14:40:31;;;;;;;4.25;2.97;;;;;;;;;;5064321;28;20024;-86
2023/06/23 14:42:56;;;;;;;4.72;3.03;;;;;;;;;;5064599;28;20032;-86
2023/06/23 14:45:21;;;;;;;3.05;2.17;;;;;;;;;;5062366;28;20388;-89
2023/06/23 14:47:47;;;;;;;3.88;2.78;;;;;;;;;;5064833;28;20029;-87
2023/06/23 14:50:12;;;;;;;3.47;2.45;;;;;;;;;;5063160;28;20028;-89
2023/06/23 14:52:39;;;;;;;9.38;2.42;;;;;;;;;;5063641;28;20027;-88
2023/06/23 14:55:04;;;;;;;3.78;2.20;;;;;;;;;;5063547;28;20020;-86